sensor_id;sensor_type;location;lat;lon;timestamp;temperature;humidity
19493;DHT22;9887;54.366;10.958;2023-07-29T00:00:25;18.70;99.90
19493;DHT22;9887;54.366;10.958;2023-07-29T00:02:54;18.80;99.90
19493;DHT22;9887;54.366;10.958;2023-07-29T00:05:22;18.70;99.90
19493;DHT22;9887;54.366;10.958;2023-07-29T00:07:50;18.80;99.90
19493;DHT22;9887;54.366;10.958;2023-07-29T00:10:18;18.80;99.90
19493;DHT22;9887;54.366;10.958;2023-07-29T00:12:47;18.70;99.90
19493;DHT22;9887;54.366;10.958;2023-07-29T00:15:15;18.70;99.90
19493;DHT22;9887;54.366;10.958;2023-07-29T00:17:43;18.70;99.90
19493;DHT22;9887;54.366;10.958;2023-07-29T00:20:11;18.60;99.90
19493;DHT22;9887;54.366;10.958;2023-07-29T00:22:39;18.70;99.90
19493;DHT22;9887;54.366;10.958;2023-07-29T00:25:07;18.60;99.90
19493;DHT22;9887;54.366;10.958;2023-07-29T00:27:35;18.60;99.90
19493;DHT22;9887;54.366;10.958;2023-07-29T00:30:06;18.60;99.90
19493;DHT22;9887;54.366;10.958;2023-07-29T00:32:35;18.60;99.90
19493;DHT22;9887;54.366;10.958;2023-07-29T00:35:04;18.70;99.90
19493;DHT22;9887;54.366;10.958;2023-07-29T00:37:32;18.70;99.90
19493;DHT22;9887;54.366;10.958;2023-07-29T00:40:00;18.70;99.90
19493;DHT22;9887;54.366;10.958;2023-07-29T00:42:30;18.70;99.90
19493;DHT22;9887;54.366;10.958;2023-07-29T00:44:58;18.70;99.90
19493;DHT22;9887;54.366;10.958;2023-07-29T00:47:27;18.70;99.90
19493;DHT22;9887;54.366;10.958;2023-07-29T00:49:55;18.70;99.90
19493;DHT22;9887;54.366;10.958;2023-07-29T00:52:23;18.70;99.90
19493;DHT22;9887;54.366;10.958;2023-07-29T00:54:50;18.70;99.90
19493;DHT22;9887;54.366;10.958;2023-07-29T00:57:19;18.70;99.90
19493;DHT22;9887;54.366;10.958;2023-07-29T00:59:48;18.80;99.90
19493;DHT22;9887;54.366;10.958;2023-07-29T01:02:16;18.80;99.90
19493;DHT22;9887;54.366;10.958;2023-07-29T01:04:45;18.70;99.90
19493;DHT22;9887;54.366;10.958;2023-07-29T01:07:19;18.80;99.90
19493;DHT22;9887;54.366;10.958;2023-07-29T01:09:55;18.80;99.90
19493;DHT22;9887;54.366;10.958;2023-07-29T01:12:28;18.80;99.90
19493;DHT22;9887;54.366;10.958;2023-07-29T01:15:04;18.90;99.90
19493;DHT22;9887;54.366;10.958;2023-07-29T01:17:38;18.90;99.90
19493;DHT22;9887;54.366;10.958;2023-07-29T01:20:11;18.90;99.90
19493;DHT22;9887;54.366;10.958;2023-07-29T01:22:41;18.90;99.90
19493;DHT22;9887;54.366;10.958;2023-07-29T01:25:11;19.00;99.90
19493;DHT22;9887;54.366;10.958;2023-07-29T01:27:39;19.10;99.90
19493;DHT22;9887;54.366;10.958;2023-07-29T01:30:08;19.00;99.90
19493;DHT22;9887;54.366;10.958;2023-07-29T01:32:42;18.90;99.90
19493;DHT22;9887;54.366;10.958;2023-07-29T01:35:19;18.80;99.90
19493;DHT22;9887;54.366;10.958;2023-07-29T01:37:55;18.60;99.90
19493;DHT22;9887;54.366;10.958;2023-07-29T01:40:27;18.60;99.90
19493;DHT22;9887;54.366;10.958;2023-07-29T01:42:56;18.50;99.90
19493;DHT22;9887;54.366;10.958;2023-07-29T01:45:24;18.40;99.90
19493;DHT22;9887;54.366;10.958;2023-07-29T01:47:52;18.30;99.90
19493;DHT22;9887;54.366;10.958;2023-07-29T01:50:21;18.20;99.90
19493;DHT22;9887;54.366;10.958;2023-07-29T01:52:48;18.10;99.90
19493;DHT22;9887;54.366;10.958;2023-07-29T01:55:16;18.10;99.90
19493;DHT22;9887;54.366;10.958;2023-07-29T01:57:46;18.10;99.90
19493;DHT22;9887;54.366;10.958;2023-07-29T02:00:15;18.10;99.90
19493;DHT22;9887;54.366;10.958;2023-07-29T02:02:44;17.90;99.90
19493;DHT22;9887;54.366;10.958;2023-07-29T02:05:12;17.90;99.90
19493;DHT22;9887;54.366;10.958;2023-07-29T02:07:40;17.80;99.90
19493;DHT22;9887;54.366;10.958;2023-07-29T02:10:09;17.80;99.90
19493;DHT22;9887;54.366;10.958;2023-07-29T02:12:37;17.80;99.90
19493;DHT22;9887;54.366;10.958;2023-07-29T02:15:07;17.80;99.90
19493;DHT22;9887;54.366;10.958;2023-07-29T02:17:36;17.80;99.90
19493;DHT22;9887;54.366;10.958;2023-07-29T02:20:05;17.80;99.90
19493;DHT22;9887;54.366;10.958;2023-07-29T02:22:33;17.90;99.90
19493;DHT22;9887;54.366;10.958;2023-07-29T02:25:01;17.90;99.90
19493;DHT22;9887;54.366;10.958;2023-07-29T02:27:29;17.90;99.90
19493;DHT22;9887;54.366;10.958;2023-07-29T02:29:57;17.90;99.90
19493;DHT22;9887;54.366;10.958;2023-07-29T02:32:26;18.00;99.90
19493;DHT22;9887;54.366;10.958;2023-07-29T02:34:54;18.10;99.90
19493;DHT22;9887;54.366;10.958;2023-07-29T02:37:22;18.10;99.90
19493;DHT22;9887;54.366;10.958;2023-07-29T02:39:50;18.10;99.90
19493;DHT22;9887;54.366;10.958;2023-07-29T02:42:18;18.00;99.90
19493;DHT22;9887;54.366;10.958;2023-07-29T02:44:46;18.10;99.90
19493;DHT22;9887;54.366;10.958;2023-07-29T02:47:14;18.10;99.90
19493;DHT22;9887;54.366;10.958;2023-07-29T02:49:44;18.20;99.90
19493;DHT22;9887;54.366;10.958;2023-07-29T02:52:11;18.20;99.90
19493;DHT22;9887;54.366;10.958;2023-07-29T02:54:39;18.40;99.90
19493;DHT22;9887;54.366;10.958;2023-07-29T02:57:07;18.40;99.90
19493;DHT22;9887;54.366;10.958;2023-07-29T02:59:35;18.40;99.90
19493;DHT22;9887;54.366;10.958;2023-07-29T03:02:03;18.60;99.90
19493;DHT22;9887;54.366;10.958;2023-07-29T03:04:31;18.60;99.90
19493;DHT22;9887;54.366;10.958;2023-07-29T03:07:01;18.60;99.90
19493;DHT22;9887;54.366;10.958;2023-07-29T03:09:29;18.50;99.90
19493;DHT22;9887;54.366;10.958;2023-07-29T03:11:57;18.40;99.90
19493;DHT22;9887;54.366;10.958;2023-07-29T03:14:25;18.10;99.90
19493;DHT22;9887;54.366;10.958;2023-07-29T03:16:54;18.00;99.90
19493;DHT22;9887;54.366;10.958;2023-07-29T03:19:22;17.90;99.90
19493;DHT22;9887;54.366;10.958;2023-07-29T03:21:50;17.90;99.90
19493;DHT22;9887;54.366;10.958;2023-07-29T03:24:19;17.90;99.90
19493;DHT22;9887;54.366;10.958;2023-07-29T03:26:47;17.90;99.90
19493;DHT22;9887;54.366;10.958;2023-07-29T03:29:15;17.90;99.90
19493;DHT22;9887;54.366;10.958;2023-07-29T03:31:43;17.90;99.90
19493;DHT22;9887;54.366;10.958;2023-07-29T03:34:11;17.90;99.90
19493;DHT22;9887;54.366;10.958;2023-07-29T03:36:55;18.00;99.90
19493;DHT22;9887;54.366;10.958;2023-07-29T03:39:24;17.90;99.90
19493;DHT22;9887;54.366;10.958;2023-07-29T03:41:52;17.80;99.90
19493;DHT22;9887;54.366;10.958;2023-07-29T03:44:20;17.60;99.90
19493;DHT22;9887;54.366;10.958;2023-07-29T03:46:47;17.30;99.90
19493;DHT22;9887;54.366;10.958;2023-07-29T03:49:15;17.20;99.90
19493;DHT22;9887;54.366;10.958;2023-07-29T03:51:43;17.10;99.90
19493;DHT22;9887;54.366;10.958;2023-07-29T03:54:12;17.20;99.90
19493;DHT22;9887;54.366;10.958;2023-07-29T03:56:41;17.20;99.90
19493;DHT22;9887;54.366;10.958;2023-07-29T03:59:09;17.20;99.90
19493;DHT22;9887;54.366;10.958;2023-07-29T04:01:37;17.20;99.90
19493;DHT22;9887;54.366;10.958;2023-07-29T04:04:05;17.00;99.90
19493;DHT22;9887;54.366;10.958;2023-07-29T04:06:33;17.00;99.90
19493;DHT22;9887;54.366;10.958;2023-07-29T04:09:01;16.90;99.90
19493;DHT22;9887;54.366;10.958;2023-07-29T04:11:29;16.90;99.90
19493;DHT22;9887;54.366;10.958;2023-07-29T04:13:58;16.90;99.90
19493;DHT22;9887;54.366;10.958;2023-07-29T04:16:26;16.90;99.90
19493;DHT22;9887;54.366;10.958;2023-07-29T04:18:55;16.80;99.90
19493;DHT22;9887;54.366;10.958;2023-07-29T04:21:23;16.80;99.90
19493;DHT22;9887;54.366;10.958;2023-07-29T04:23:51;16.80;99.90
19493;DHT22;9887;54.366;10.958;2023-07-29T04:26:19;16.90;99.90
19493;DHT22;9887;54.366;10.958;2023-07-29T04:28:46;16.90;99.90
19493;DHT22;9887;54.366;10.958;2023-07-29T04:31:16;17.00;99.90
19493;DHT22;9887;54.366;10.958;2023-07-29T04:33:44;17.00;99.90
19493;DHT22;9887;54.366;10.958;2023-07-29T04:36:12;17.00;99.90
19493;DHT22;9887;54.366;10.958;2023-07-29T04:38:43;17.00;99.90
19493;DHT22;9887;54.366;10.958;2023-07-29T04:41:11;17.00;99.90
19493;DHT22;9887;54.366;10.958;2023-07-29T04:43:39;17.00;99.90
19493;DHT22;9887;54.366;10.958;2023-07-29T04:46:07;17.00;99.90
19493;DHT22;9887;54.366;10.958;2023-07-29T04:48:37;17.00;99.90
19493;DHT22;9887;54.366;10.958;2023-07-29T04:51:05;17.00;99.90
19493;DHT22;9887;54.366;10.958;2023-07-29T04:53:33;17.10;99.90
19493;DHT22;9887;54.366;10.958;2023-07-29T04:56:02;17.00;99.90
19493;DHT22;9887;54.366;10.958;2023-07-29T04:58:30;17.10;99.90
19493;DHT22;9887;54.366;10.958;2023-07-29T05:01:02;17.10;99.90
19493;DHT22;9887;54.366;10.958;2023-07-29T05:03:30;17.20;99.90
19493;DHT22;9887;54.366;10.958;2023-07-29T05:05:59;17.20;99.90
19493;DHT22;9887;54.366;10.958;2023-07-29T05:08:28;17.20;99.90
19493;DHT22;9887;54.366;10.958;2023-07-29T05:10:56;17.20;99.90
19493;DHT22;9887;54.366;10.958;2023-07-29T05:13:24;17.20;99.90
19493;DHT22;9887;54.366;10.958;2023-07-29T05:15:52;17.20;99.90
19493;DHT22;9887;54.366;10.958;2023-07-29T05:18:20;17.20;99.90
19493;DHT22;9887;54.366;10.958;2023-07-29T05:20:49;17.20;99.90
19493;DHT22;9887;54.366;10.958;2023-07-29T05:23:18;17.30;99.90
19493;DHT22;9887;54.366;10.958;2023-07-29T05:25:46;17.30;99.90
19493;DHT22;9887;54.366;10.958;2023-07-29T05:28:14;17.40;99.90
19493;DHT22;9887;54.366;10.958;2023-07-29T05:30:43;17.40;99.90
19493;DHT22;9887;54.366;10.958;2023-07-29T05:33:11;17.40;99.90
19493;DHT22;9887;54.366;10.958;2023-07-29T05:35:39;17.50;99.90
19493;DHT22;9887;54.366;10.958;2023-07-29T05:38:07;17.50;99.90
19493;DHT22;9887;54.366;10.958;2023-07-29T05:40:37;17.50;99.90
19493;DHT22;9887;54.366;10.958;2023-07-29T05:43:05;17.60;99.90
19493;DHT22;9887;54.366;10.958;2023-07-29T05:45:33;17.60;99.90
19493;DHT22;9887;54.366;10.958;2023-07-29T05:48:01;17.60;99.90
19493;DHT22;9887;54.366;10.958;2023-07-29T05:50:29;17.70;99.90
19493;DHT22;9887;54.366;10.958;2023-07-29T05:52:57;17.70;99.90
19493;DHT22;9887;54.366;10.958;2023-07-29T05:55:25;17.90;99.90
19493;DHT22;9887;54.366;10.958;2023-07-29T05:57:54;17.90;99.90
19493;DHT22;9887;54.366;10.958;2023-07-29T06:00:22;18.00;99.90
19493;DHT22;9887;54.366;10.958;2023-07-29T06:02:49;17.90;99.90
19493;DHT22;9887;54.366;10.958;2023-07-29T06:05:20;17.50;99.90
19493;DHT22;9887;54.366;10.958;2023-07-29T06:07:49;17.60;99.90
19493;DHT22;9887;54.366;10.958;2023-07-29T06:10:17;17.70;99.90
19493;DHT22;9887;54.366;10.958;2023-07-29T06:12:45;17.90;99.90
19493;DHT22;9887;54.366;10.958;2023-07-29T06:15:15;18.20;99.90
19493;DHT22;9887;54.366;10.958;2023-07-29T06:17:43;18.50;99.90
19493;DHT22;9887;54.366;10.958;2023-07-29T06:20:11;18.50;99.90
19493;DHT22;9887;54.366;10.958;2023-07-29T06:22:39;18.30;99.90
19493;DHT22;9887;54.366;10.958;2023-07-29T06:25:07;18.10;99.90
19493;DHT22;9887;54.366;10.958;2023-07-29T06:27:35;17.90;99.90
19493;DHT22;9887;54.366;10.958;2023-07-29T06:30:04;17.90;99.90
19493;DHT22;9887;54.366;10.958;2023-07-29T06:32:34;17.90;99.90
19493;DHT22;9887;54.366;10.958;2023-07-29T06:35:02;18.10;99.90
19493;DHT22;9887;54.366;10.958;2023-07-29T06:37:30;18.40;99.90
19493;DHT22;9887;54.366;10.958;2023-07-29T06:39:59;18.50;99.90
19493;DHT22;9887;54.366;10.958;2023-07-29T06:42:27;18.60;99.90
19493;DHT22;9887;54.366;10.958;2023-07-29T06:44:55;18.60;99.90
19493;DHT22;9887;54.366;10.958;2023-07-29T06:47:23;18.60;99.90
19493;DHT22;9887;54.366;10.958;2023-07-29T06:49:54;18.60;99.90
19493;DHT22;9887;54.366;10.958;2023-07-29T06:52:22;18.70;99.90
19493;DHT22;9887;54.366;10.958;2023-07-29T06:54:50;18.70;99.90
19493;DHT22;9887;54.366;10.958;2023-07-29T06:57:18;18.80;99.90
19493;DHT22;9887;54.366;10.958;2023-07-29T06:59:45;18.70;99.90
19493;DHT22;9887;54.366;10.958;2023-07-29T07:02:14;18.60;99.90
19493;DHT22;9887;54.366;10.958;2023-07-29T07:04:42;18.80;99.90
19493;DHT22;9887;54.366;10.958;2023-07-29T07:07:11;19.00;99.90
19493;DHT22;9887;54.366;10.958;2023-07-29T07:09:39;19.20;99.90
19493;DHT22;9887;54.366;10.958;2023-07-29T07:12:07;19.30;99.90
19493;DHT22;9887;54.366;10.958;2023-07-29T07:14:36;19.40;99.90
19493;DHT22;9887;54.366;10.958;2023-07-29T07:17:04;19.30;99.90
19493;DHT22;9887;54.366;10.958;2023-07-29T07:19:32;19.20;99.90
19493;DHT22;9887;54.366;10.958;2023-07-29T07:22:00;19.30;99.90
19493;DHT22;9887;54.366;10.958;2023-07-29T07:24:29;19.40;99.90
19493;DHT22;9887;54.366;10.958;2023-07-29T07:26:57;19.70;99.90
19493;DHT22;9887;54.366;10.958;2023-07-29T07:29:25;19.80;99.90
19493;DHT22;9887;54.366;10.958;2023-07-29T07:31:54;19.80;99.90
19493;DHT22;9887;54.366;10.958;2023-07-29T07:34:22;19.90;99.90
19493;DHT22;9887;54.366;10.958;2023-07-29T07:36:50;20.00;99.90
19493;DHT22;9887;54.366;10.958;2023-07-29T07:39:18;20.20;99.90
19493;DHT22;9887;54.366;10.958;2023-07-29T07:41:47;20.20;99.90
19493;DHT22;9887;54.366;10.958;2023-07-29T07:44:15;20.30;99.90
19493;DHT22;9887;54.366;10.958;2023-07-29T07:46:44;20.30;99.90
19493;DHT22;9887;54.366;10.958;2023-07-29T07:49:12;20.40;99.90
19493;DHT22;9887;54.366;10.958;2023-07-29T07:51:40;20.50;99.90
19493;DHT22;9887;54.366;10.958;2023-07-29T07:54:08;20.60;99.90
19493;DHT22;9887;54.366;10.958;2023-07-29T07:56:36;20.60;99.90
19493;DHT22;9887;54.366;10.958;2023-07-29T07:59:06;20.50;99.90
19493;DHT22;9887;54.366;10.958;2023-07-29T08:01:35;20.50;99.90
19493;DHT22;9887;54.366;10.958;2023-07-29T08:04:04;20.50;99.90
19493;DHT22;9887;54.366;10.958;2023-07-29T08:06:32;20.50;99.90
19493;DHT22;9887;54.366;10.958;2023-07-29T08:09:01;20.50;99.90
19493;DHT22;9887;54.366;10.958;2023-07-29T08:11:29;20.50;99.90
19493;DHT22;9887;54.366;10.958;2023-07-29T08:13:59;20.60;99.90
19493;DHT22;9887;54.366;10.958;2023-07-29T08:16:28;20.60;99.90
19493;DHT22;9887;54.366;10.958;2023-07-29T08:18:56;20.60;99.90
19493;DHT22;9887;54.366;10.958;2023-07-29T08:21:24;20.70;99.90
19493;DHT22;9887;54.366;10.958;2023-07-29T08:23:51;20.60;99.90
19493;DHT22;9887;54.366;10.958;2023-07-29T08:26:19;20.60;99.90
19493;DHT22;9887;54.366;10.958;2023-07-29T08:28:48;20.60;99.90
19493;DHT22;9887;54.366;10.958;2023-07-29T08:31:20;20.70;99.90
19493;DHT22;9887;54.366;10.958;2023-07-29T08:33:49;20.80;99.90
19493;DHT22;9887;54.366;10.958;2023-07-29T08:36:17;20.80;99.90
19493;DHT22;9887;54.366;10.958;2023-07-29T08:38:45;20.80;99.90
19493;DHT22;9887;54.366;10.958;2023-07-29T08:41:14;20.70;99.90
19493;DHT22;9887;54.366;10.958;2023-07-29T08:43:48;20.80;99.90
19493;DHT22;9887;54.366;10.958;2023-07-29T08:46:19;20.80;99.90
19493;DHT22;9887;54.366;10.958;2023-07-29T08:48:47;20.80;99.90
19493;DHT22;9887;54.366;10.958;2023-07-29T08:51:17;20.80;99.90
19493;DHT22;9887;54.366;10.958;2023-07-29T08:53:47;20.80;99.90
19493;DHT22;9887;54.366;10.958;2023-07-29T08:56:15;20.80;99.90
19493;DHT22;9887;54.366;10.958;2023-07-29T08:58:43;20.80;99.90
19493;DHT22;9887;54.366;10.958;2023-07-29T09:01:11;20.80;99.90
19493;DHT22;9887;54.366;10.958;2023-07-29T09:03:41;20.90;99.90
19493;DHT22;9887;54.366;10.958;2023-07-29T09:06:09;21.00;99.90
19493;DHT22;9887;54.366;10.958;2023-07-29T09:08:38;21.10;99.90
19493;DHT22;9887;54.366;10.958;2023-07-29T09:11:06;21.20;99.90
19493;DHT22;9887;54.366;10.958;2023-07-29T09:13:35;21.30;99.90
19493;DHT22;9887;54.366;10.958;2023-07-29T09:16:04;21.40;99.90
19493;DHT22;9887;54.366;10.958;2023-07-29T09:18:32;21.50;99.90
19493;DHT22;9887;54.366;10.958;2023-07-29T09:21:00;21.60;99.90
19493;DHT22;9887;54.366;10.958;2023-07-29T09:23:28;21.60;99.90
19493;DHT22;9887;54.366;10.958;2023-07-29T09:26:07;21.60;99.90
19493;DHT22;9887;54.366;10.958;2023-07-29T09:28:36;21.60;99.90
19493;DHT22;9887;54.366;10.958;2023-07-29T09:31:05;21.70;99.90
19493;DHT22;9887;54.366;10.958;2023-07-29T09:33:34;21.70;99.90
19493;DHT22;9887;54.366;10.958;2023-07-29T09:36:08;21.80;99.90
19493;DHT22;9887;54.366;10.958;2023-07-29T09:38:37;21.90;99.90
19493;DHT22;9887;54.366;10.958;2023-07-29T09:41:06;22.00;99.90
19493;DHT22;9887;54.366;10.958;2023-07-29T09:43:35;22.10;99.90
19493;DHT22;9887;54.366;10.958;2023-07-29T09:46:04;22.10;99.90
19493;DHT22;9887;54.366;10.958;2023-07-29T09:48:34;22.20;99.90
19493;DHT22;9887;54.366;10.958;2023-07-29T09:51:10;22.30;99.90
19493;DHT22;9887;54.366;10.958;2023-07-29T09:53:44;22.50;99.90
19493;DHT22;9887;54.366;10.958;2023-07-29T09:56:15;22.50;99.90
19493;DHT22;9887;54.366;10.958;2023-07-29T09:58:43;22.40;99.90
19493;DHT22;9887;54.366;10.958;2023-07-29T10:01:13;22.50;99.90
19493;DHT22;9887;54.366;10.958;2023-07-29T10:03:42;22.50;99.90
19493;DHT22;9887;54.366;10.958;2023-07-29T10:06:14;22.60;99.90
19493;DHT22;9887;54.366;10.958;2023-07-29T10:08:43;22.70;99.90
19493;DHT22;9887;54.366;10.958;2023-07-29T10:11:11;22.80;99.90
19493;DHT22;9887;54.366;10.958;2023-07-29T10:13:40;22.80;99.90
19493;DHT22;9887;54.366;10.958;2023-07-29T10:16:19;22.90;99.90
19493;DHT22;9887;54.366;10.958;2023-07-29T10:18:48;22.90;99.90
19493;DHT22;9887;54.366;10.958;2023-07-29T10:21:16;23.10;99.90
19493;DHT22;9887;54.366;10.958;2023-07-29T10:23:47;23.20;99.90
19493;DHT22;9887;54.366;10.958;2023-07-29T10:26:17;23.10;99.90
19493;DHT22;9887;54.366;10.958;2023-07-29T10:28:52;23.20;99.90
19493;DHT22;9887;54.366;10.958;2023-07-29T10:31:22;23.30;99.90
19493;DHT22;9887;54.366;10.958;2023-07-29T10:33:50;23.20;99.90
19493;DHT22;9887;54.366;10.958;2023-07-29T10:36:19;23.20;99.90
19493;DHT22;9887;54.366;10.958;2023-07-29T10:38:58;23.30;99.90
19493;DHT22;9887;54.366;10.958;2023-07-29T10:41:54;23.30;99.90
19493;DHT22;9887;54.366;10.958;2023-07-29T10:44:52;23.30;99.90
19493;DHT22;9887;54.366;10.958;2023-07-29T10:47:24;23.30;99.90
19493;DHT22;9887;54.366;10.958;2023-07-29T10:49:53;23.40;99.90
19493;DHT22;9887;54.366;10.958;2023-07-29T10:52:39;23.40;99.90
19493;DHT22;9887;54.366;10.958;2023-07-29T10:55:29;23.40;99.90
19493;DHT22;9887;54.366;10.958;2023-07-29T10:58:14;23.40;99.90
19493;DHT22;9887;54.366;10.958;2023-07-29T11:00:45;23.40;99.90
19493;DHT22;9887;54.366;10.958;2023-07-29T11:03:14;23.40;99.90
19493;DHT22;9887;54.366;10.958;2023-07-29T11:05:44;23.30;99.90
19493;DHT22;9887;54.366;10.958;2023-07-29T11:08:20;23.30;99.90
19493;DHT22;9887;54.366;10.958;2023-07-29T11:11:01;23.30;99.90
19493;DHT22;9887;54.366;10.958;2023-07-29T11:13:29;23.20;99.90
19493;DHT22;9887;54.366;10.958;2023-07-29T11:15:59;23.00;99.90
19493;DHT22;9887;54.366;10.958;2023-07-29T11:18:29;22.90;99.90
19493;DHT22;9887;54.366;10.958;2023-07-29T11:20:58;22.80;99.90
19493;DHT22;9887;54.366;10.958;2023-07-29T11:23:31;22.90;99.90
19493;DHT22;9887;54.366;10.958;2023-07-29T11:25:59;23.00;99.90
19493;DHT22;9887;54.366;10.958;2023-07-29T11:28:28;23.20;99.90
19493;DHT22;9887;54.366;10.958;2023-07-29T11:30:58;23.40;99.90
19493;DHT22;9887;54.366;10.958;2023-07-29T11:33:27;23.60;99.90
19493;DHT22;9887;54.366;10.958;2023-07-29T11:35:55;23.70;99.90
19493;DHT22;9887;54.366;10.958;2023-07-29T11:38:23;23.80;99.90
19493;DHT22;9887;54.366;10.958;2023-07-29T11:40:55;24.00;99.90
19493;DHT22;9887;54.366;10.958;2023-07-29T11:43:24;24.10;99.90
19493;DHT22;9887;54.366;10.958;2023-07-29T11:45:52;24.20;99.90
19493;DHT22;9887;54.366;10.958;2023-07-29T11:48:28;24.30;99.90
19493;DHT22;9887;54.366;10.958;2023-07-29T11:50:56;24.40;99.90
19493;DHT22;9887;54.366;10.958;2023-07-29T11:53:27;24.50;99.90
19493;DHT22;9887;54.366;10.958;2023-07-29T11:55:55;24.50;99.90
19493;DHT22;9887;54.366;10.958;2023-07-29T11:58:24;24.60;99.90
19493;DHT22;9887;54.366;10.958;2023-07-29T12:00:52;24.70;99.90
19493;DHT22;9887;54.366;10.958;2023-07-29T12:03:20;24.70;99.90
19493;DHT22;9887;54.366;10.958;2023-07-29T12:05:51;24.80;99.90
19493;DHT22;9887;54.366;10.958;2023-07-29T12:08:19;24.80;99.90
19493;DHT22;9887;54.366;10.958;2023-07-29T12:10:47;24.70;99.90
19493;DHT22;9887;54.366;10.958;2023-07-29T12:13:15;24.70;99.90
19493;DHT22;9887;54.366;10.958;2023-07-29T12:15:43;24.70;99.90
19493;DHT22;9887;54.366;10.958;2023-07-29T12:18:12;24.80;99.90
19493;DHT22;9887;54.366;10.958;2023-07-29T12:20:40;24.80;99.90
19493;DHT22;9887;54.366;10.958;2023-07-29T12:23:10;24.80;99.90
19493;DHT22;9887;54.366;10.958;2023-07-29T12:25:38;24.50;99.90
19493;DHT22;9887;54.366;10.958;2023-07-29T12:28:06;24.50;99.90
19493;DHT22;9887;54.366;10.958;2023-07-29T12:30:40;24.60;99.90
19493;DHT22;9887;54.366;10.958;2023-07-29T12:33:08;24.70;99.90
19493;DHT22;9887;54.366;10.958;2023-07-29T12:35:36;24.70;99.90
19493;DHT22;9887;54.366;10.958;2023-07-29T12:38:05;24.70;99.90
19493;DHT22;9887;54.366;10.958;2023-07-29T12:40:38;24.70;99.90
19493;DHT22;9887;54.366;10.958;2023-07-29T12:43:07;24.70;99.90
19493;DHT22;9887;54.366;10.958;2023-07-29T12:45:36;24.70;99.90
19493;DHT22;9887;54.366;10.958;2023-07-29T12:48:06;24.80;99.90
19493;DHT22;9887;54.366;10.958;2023-07-29T12:50:34;24.80;99.90
19493;DHT22;9887;54.366;10.958;2023-07-29T12:55:30;25.00;99.90
19493;DHT22;9887;54.366;10.958;2023-07-29T12:57:59;25.10;99.90
19493;DHT22;9887;54.366;10.958;2023-07-29T13:00:28;25.10;99.90
19493;DHT22;9887;54.366;10.958;2023-07-29T13:02:56;25.20;99.90
19493;DHT22;9887;54.366;10.958;2023-07-29T13:05:24;25.20;99.90
19493;DHT22;9887;54.366;10.958;2023-07-29T13:07:52;25.20;99.90
19493;DHT22;9887;54.366;10.958;2023-07-29T13:10:20;25.20;99.90
19493;DHT22;9887;54.366;10.958;2023-07-29T13:12:47;25.30;99.90
19493;DHT22;9887;54.366;10.958;2023-07-29T13:15:17;25.30;99.90
19493;DHT22;9887;54.366;10.958;2023-07-29T13:17:45;25.30;99.90
19493;DHT22;9887;54.366;10.958;2023-07-29T13:20:12;25.40;99.90
19493;DHT22;9887;54.366;10.958;2023-07-29T13:22:40;25.40;99.90
19493;DHT22;9887;54.366;10.958;2023-07-29T13:25:08;25.50;99.90
19493;DHT22;9887;54.366;10.958;2023-07-29T13:27:36;25.50;99.90
19493;DHT22;9887;54.366;10.958;2023-07-29T13:30:05;25.40;99.90
19493;DHT22;9887;54.366;10.958;2023-07-29T13:32:34;25.40;99.90
19493;DHT22;9887;54.366;10.958;2023-07-29T13:35:03;25.50;99.90
19493;DHT22;9887;54.366;10.958;2023-07-29T13:37:31;25.60;99.90
19493;DHT22;9887;54.366;10.958;2023-07-29T13:39:58;25.60;99.90
19493;DHT22;9887;54.366;10.958;2023-07-29T13:42:26;25.70;99.90
19493;DHT22;9887;54.366;10.958;2023-07-29T13:44:54;25.80;99.90
19493;DHT22;9887;54.366;10.958;2023-07-29T13:47:22;25.80;99.90
19493;DHT22;9887;54.366;10.958;2023-07-29T13:49:51;25.80;99.90
19493;DHT22;9887;54.366;10.958;2023-07-29T13:52:19;25.80;99.90
19493;DHT22;9887;54.366;10.958;2023-07-29T13:54:47;25.90;99.90
19493;DHT22;9887;54.366;10.958;2023-07-29T13:57:15;26.00;99.90
19493;DHT22;9887;54.366;10.958;2023-07-29T13:59:42;26.00;99.90
19493;DHT22;9887;54.366;10.958;2023-07-29T14:02:10;26.00;99.90
19493;DHT22;9887;54.366;10.958;2023-07-29T14:04:38;26.00;99.90
19493;DHT22;9887;54.366;10.958;2023-07-29T14:07:07;26.10;99.90
19493;DHT22;9887;54.366;10.958;2023-07-29T14:09:35;26.00;99.90
19493;DHT22;9887;54.366;10.958;2023-07-29T14:12:04;26.00;99.90
19493;DHT22;9887;54.366;10.958;2023-07-29T14:14:33;26.00;99.90
19493;DHT22;9887;54.366;10.958;2023-07-29T14:17:00;26.00;99.90
19493;DHT22;9887;54.366;10.958;2023-07-29T14:19:28;26.00;99.90
19493;DHT22;9887;54.366;10.958;2023-07-29T14:21:56;25.90;99.90
19493;DHT22;9887;54.366;10.958;2023-07-29T14:24:25;25.90;99.90
19493;DHT22;9887;54.366;10.958;2023-07-29T14:26:53;26.00;99.90
19493;DHT22;9887;54.366;10.958;2023-07-29T14:29:21;26.00;99.90
19493;DHT22;9887;54.366;10.958;2023-07-29T14:31:49;26.10;99.90
19493;DHT22;9887;54.366;10.958;2023-07-29T14:34:17;26.00;99.90
19493;DHT22;9887;54.366;10.958;2023-07-29T14:36:44;26.10;99.90
19493;DHT22;9887;54.366;10.958;2023-07-29T14:39:12;26.00;99.90
19493;DHT22;9887;54.366;10.958;2023-07-29T14:41:41;26.10;99.90
19493;DHT22;9887;54.366;10.958;2023-07-29T14:44:09;26.10;99.90
19493;DHT22;9887;54.366;10.958;2023-07-29T14:46:37;26.00;99.90
19493;DHT22;9887;54.366;10.958;2023-07-29T14:49:05;25.90;99.90
19493;DHT22;9887;54.366;10.958;2023-07-29T14:51:34;25.90;99.90
19493;DHT22;9887;54.366;10.958;2023-07-29T14:54:02;25.80;99.90
19493;DHT22;9887;54.366;10.958;2023-07-29T14:56:30;25.80;99.90
19493;DHT22;9887;54.366;10.958;2023-07-29T14:58:59;25.80;99.90
19493;DHT22;9887;54.366;10.958;2023-07-29T15:01:27;25.80;99.90
19493;DHT22;9887;54.366;10.958;2023-07-29T15:03:55;25.90;99.90
19493;DHT22;9887;54.366;10.958;2023-07-29T15:06:23;25.90;99.90
19493;DHT22;9887;54.366;10.958;2023-07-29T15:08:51;25.90;99.90
19493;DHT22;9887;54.366;10.958;2023-07-29T15:11:18;25.90;99.90
19493;DHT22;9887;54.366;10.958;2023-07-29T15:13:46;25.80;99.90
19493;DHT22;9887;54.366;10.958;2023-07-29T15:16:15;25.80;99.90
19493;DHT22;9887;54.366;10.958;2023-07-29T15:18:43;25.80;99.90
19493;DHT22;9887;54.366;10.958;2023-07-29T15:21:11;25.70;99.90
19493;DHT22;9887;54.366;10.958;2023-07-29T15:23:39;25.70;99.90
19493;DHT22;9887;54.366;10.958;2023-07-29T15:26:07;25.60;99.90
19493;DHT22;9887;54.366;10.958;2023-07-29T15:28:35;25.60;99.90
19493;DHT22;9887;54.366;10.958;2023-07-29T15:31:03;25.60;99.90
19493;DHT22;9887;54.366;10.958;2023-07-29T15:33:32;25.60;99.90
19493;DHT22;9887;54.366;10.958;2023-07-29T15:36:01;25.50;99.90
19493;DHT22;9887;54.366;10.958;2023-07-29T15:38:28;25.40;99.90
19493;DHT22;9887;54.366;10.958;2023-07-29T15:40:56;25.40;99.90
19493;DHT22;9887;54.366;10.958;2023-07-29T15:43:24;25.40;99.90